Time;durP1;ratioP1;P1;durP2;ratioP2;P2;SDS_P1;SDS_P2;PMS_P1;PMS_P2;Temp;Humidity;BMP_temperature;BMP_pressure;BME280_temperature;BME280_humidity;BME280_pressure;Samples;Min_cycle;Max_cycle;Signal;HPM_P1;HPM_P2
2023/03/18 00:01:00;;;;;;;14.63;10.97;;;;;;;6.50;59.11;100038.69;5163892;27;20161;-56
2023/03/18 00:03:27;;;;;;;12.83;9.67;;;;;;;6.54;58.75;100035.41;5163874;27;20148;-56
2023/03/18 00:06:03;;;;;;;13.03;10.17;;;;;;;6.42;59.61;100039.16;5163831;27;20150;-57
2023/03/18 00:08:30;;;;;;;13.27;10.00;;;;;;;6.35;59.39;100037.16;5163833;27;20157;-56
2023/03/18 00:10:58;;;;;;;12.80;10.50;;;;;;;6.28;59.66;100032.63;5163301;27;20420;-57
2023/03/18 00:13:26;;;;;;;12.37;10.27;;;;;;;6.41;59.92;100025.53;5163667;27;20160;-57
2023/03/18 00:15:53;;;;;;;14.40;11.03;;;;;;;6.50;59.84;100025.03;5163591;27;20231;-57
2023/03/18 00:18:20;;;;;;;13.63;10.33;;;;;;;6.56;59.07;100020.19;5163536;27;20154;-57
2023/03/18 00:20:47;;;;;;;12.40;10.43;;;;;;;6.70;59.01;100021.63;5163540;27;20229;-57
2023/03/18 00:23:14;;;;;;;12.57;9.57;;;;;;;6.78;58.56;100016.81;5163454;27;20165;-56
2023/03/18 00:25:41;;;;;;;13.97;10.70;;;;;;;6.85;58.28;100016.22;5163334;27;20177;-56
2023/03/18 00:28:09;;;;;;;14.87;11.33;;;;;;;6.90;58.09;100014.72;5163299;27;20188;-56
2023/03/18 00:30:40;;;;;;;13.83;10.77;;;;;;;6.90;58.65;100007.91;5163465;27;20184;-57
2023/03/18 00:33:08;;;;;;;13.40;10.63;;;;;;;6.96;58.56;100014.94;5163087;27;20208;-54
2023/03/18 00:35:36;;;;;;;15.23;10.73;;;;;;;7.00;58.06;100011.72;5163331;27;20208;-56
2023/03/18 00:38:06;;;;;;;12.73;10.40;;;;;;;7.04;57.18;100016.13;5163295;27;20165;-57
2023/03/18 00:40:52;;;;;;;13.00;10.40;;;;;;;7.00;57.67;100009.16;5163128;27;20164;-57
2023/03/18 00:43:21;;;;;;;13.90;10.80;;;;;;;7.01;57.23;100008.34;5163308;27;20157;-55
2023/03/18 00:45:50;;;;;;;14.20;11.53;;;;;;;6.97;57.00;100006.50;5163121;27;20161;-57
2023/03/18 00:48:18;;;;;;;14.53;11.30;;;;;;;6.64;57.71;99974.53;5162984;27;20160;-57
2023/03/18 00:50:45;;;;;;;17.47;13.90;;;;;;;6.70;57.50;99990.09;5162906;27;20168;-56
2023/03/18 00:53:13;;;;;;;13.87;10.60;;;;;;;6.83;57.59;99994.88;5162888;27;20171;-57
2023/03/18 00:55:40;;;;;;;24.30;19.10;;;;;;;6.93;57.21;99995.28;5161753;27;20425;-57
2023/03/18 00:58:07;;;;;;;13.60;11.77;;;;;;;7.04;57.20;100001.66;5162866;27;20156;-56
2023/03/18 01:00:34;;;;;;;14.65;11.82;;;;;;;7.11;56.93;99995.13;5162425;27;20393;-57
2023/03/18 01:03:03;;;;;;;12.53;10.83;;;;;;;7.17;56.61;100000.44;5162749;27;20168;-57
2023/03/18 01:05:30;;;;;;;12.70;9.33;;;;;;;7.20;55.97;99992.03;5162575;27;20188;-57
2023/03/18 01:07:58;;;;;;;14.13;9.53;;;;;;;7.25;55.29;99995.63;5162592;27;20160;-57
2023/03/18 01:10:26;;;;;;;15.03;10.50;;;;;;;7.17;55.35;99990.22;5162560;27;20216;-57
2023/03/18 01:12:53;;;;;;;11.57;10.30;;;;;;;7.36;55.60;99999.47;5162500;27;20162;-56
2023/03/18 01:15:22;;;;;;;10.87;9.13;;;;;;;7.20;55.29;99969.03;5162433;27;20191;-56
2023/03/18 01:17:49;;;;;;;12.10;9.53;;;;;;;7.37;55.56;99988.41;5162440;27;20168;-56
2023/03/18 01:20:19;;;;;;;14.15;11.95;;;;;;;7.34;55.46;99965.28;5161590;27;20403;-56
2023/03/18 01:22:46;;;;;;;13.03;10.83;;;;;;;7.57;54.79;99993.44;5162340;27;20152;-55
2023/03/18 01:25:15;;;;;;;13.00;10.80;;;;;;;7.62;54.34;99986.78;5162095;27;20230;-58
2023/03/18 01:27:43;;;;;;;32.13;18.53;;;;;;;7.63;54.60;99991.09;5162063;27;20181;-56
2023/03/18 01:30:12;;;;;;;17.93;11.90;;;;;;;7.57;54.96;99985.75;5162127;27;20160;-56
2023/03/18 01:32:39;;;;;;;14.73;10.93;;;;;;;7.36;55.69;99967.06;5162034;27;20191;-57
2023/03/18 01:35:06;;;;;;;13.60;9.77;;;;;;;7.43;56.01;99986.94;5162034;27;20161;-55
2023/03/18 01:37:35;;;;;;;10.73;9.30;;;;;;;7.41;55.94;99986.03;5161932;27;20221;-56
2023/03/18 01:40:03;;;;;;;10.27;8.30;;;;;;;7.30;55.33;99987.31;5161946;27;20153;-57
2023/03/18 01:42:30;;;;;;;9.60;8.17;;;;;;;7.23;55.33;99982.78;5161959;27;20168;-57
2023/03/18 01:45:18;;;;;;;10.07;8.33;;;;;;;7.22;56.12;99980.19;5161108;27;20192;-55
2023/03/18 01:47:46;;;;;;;11.13;8.80;;;;;;;7.09;56.68;99958.41;5161957;27;20180;-55
2023/03/18 01:50:16;;;;;;;9.97;8.90;;;;;;;7.15;57.53;99979.06;5161778;27;20165;-56
2023/03/18 01:52:46;;;;;;;10.03;8.70;;;;;;;7.11;57.42;99979.78;5161822;27;20161;-57
2023/03/18 01:55:18;;;;;;;12.70;9.20;;;;;;;6.97;58.59;99973.28;5161808;27;20161;-54
2023/03/18 01:57:45;;;;;;;12.70;9.80;;;;;;;6.83;59.84;99964.22;5161690;27;20150;-56
2023/03/18 02:00:15;;;;;;;11.73;9.57;;;;;;;6.84;60.17;99963.41;5161525;27;20204;-58
2023/03/18 02:02:44;;;;;;;11.97;9.40;;;;;;;6.88;59.79;99981.47;5161681;27;20156;-57
2023/03/18 02:05:16;;;;;;;9.80;8.57;;;;;;;6.82;60.18;99971.00;5161583;27;20192;-57
2023/03/18 02:07:45;;;;;;;10.23;9.13;;;;;;;6.76;59.85;99970.75;5161668;27;20216;-56
2023/03/18 02:10:14;;;;;;;9.57;8.43;;;;;;;6.72;60.48;99971.47;5161595;27;20175;-56
2023/03/18 02:12:44;;;;;;;10.70;8.93;;;;;;;6.67;60.47;99967.00;5161503;27;20156;-57
2023/03/18 02:15:15;;;;;;;11.40;9.00;;;;;;;6.61;60.70;99959.97;5161260;27;20159;-57
2023/03/18 02:17:48;;;;;;;11.43;8.60;;;;;;;6.62;60.76;99964.25;5161534;27;20160;-55
2023/03/18 02:20:33;;;;;;;10.07;8.30;;;;;;;6.59;60.83;99965.81;5161472;27;20213;-56
2023/03/18 02:23:09;;;;;;;10.47;8.97;;;;;;;6.64;61.51;99970.31;5161447;27;20152;-55
2023/03/18 02:25:46;;;;;;;10.60;9.07;;;;;;;6.59;61.49;99964.16;5161153;27;20175;-56
2023/03/18 02:28:20;;;;;;;11.10;9.10;;;;;;;6.65;60.67;99974.56;5161294;27;20180;-57
2023/03/18 02:30:50;;;;;;;15.33;9.37;;;;;;;6.71;61.05;99973.94;5161214;27;20185;-56
2023/03/18 02:33:21;;;;;;;10.00;8.90;;;;;;;6.63;61.12;99968.53;5161114;27;20155;-57
2023/03/18 02:35:53;;;;;;;11.40;9.07;;;;;;;6.67;60.97;99970.44;5161156;28;20160;-56
2023/03/18 02:38:20;;;;;;;10.93;9.23;;;;;;;6.67;61.14;99965.31;5161212;27;20225;-57
2023/03/18 02:40:47;;;;;;;12.90;9.37;;;;;;;6.66;61.26;99966.13;5151512;27;20192;-57
2023/03/18 02:43:23;;;;;;;11.43;9.70;;;;;;;6.64;61.26;99969.41;5152619;27;20177;-58
2023/03/18 02:46:11;;;;;;;12.17;9.67;;;;;;;6.65;61.86;99966.06;5146397;28;20187;-57
2023/03/18 02:48:42;;;;;;;10.00;8.80;;;;;;;6.68;61.63;99973.81;5160988;27;20169;-57
2023/03/18 02:51:10;;;;;;;10.47;8.80;;;;;;;6.67;61.01;99977.22;5161101;28;20209;-56
2023/03/18 02:53:38;;;;;;;11.03;8.30;;;;;;;6.70;61.37;99975.66;5160942;28;20153;-56
2023/03/18 02:56:06;;;;;;;9.83;8.17;;;;;;;6.62;61.30;99983.81;5161884;27;20157;-56
2023/03/18 02:58:34;;;;;;;9.87;7.90;;;;;;;6.56;61.15;99981.91;5165295;27;20161;-56
2023/03/18 03:01:02;;;;;;;10.53;8.00;;;;;;;6.56;61.37;99987.00;5165179;27;20219;-57
2023/03/18 03:03:29;;;;;;;9.63;7.63;;;;;;;6.59;60.50;99981.16;5165103;27;20222;-56
2023/03/18 03:05:56;;;;;;;8.97;7.07;;;;;;;6.52;60.84;99980.91;5164980;27;20183;-56
2023/03/18 03:08:24;;;;;;;9.00;7.43;;;;;;;6.52;60.74;99980.91;5164913;27;20281;-57
2023/03/18 03:10:51;;;;;;;9.47;8.03;;;;;;;6.42;61.11;99983.91;5165063;27;20185;-56
2023/03/18 03:13:19;;;;;;;8.67;6.80;;;;;;;6.46;61.06;99987.41;5164917;27;20157;-57
2023/03/18 03:15:47;;;;;;;10.63;7.83;;;;;;;6.42;61.10;99985.56;5158377;27;20187;-56
2023/03/18 03:18:15;;;;;;;13.30;8.07;;;;;;;6.27;60.71;99952.66;5144192;28;20172;-56
2023/03/18 03:20:42;;;;;;;9.60;7.63;;;;;;;6.50;61.15;99987.63;5144104;28;20213;-57
2023/03/18 03:23:12;;;;;;;8.10;7.17;;;;;;;6.53;60.54;99985.19;5153832;27;20241;-56
2023/03/18 03:25:39;;;;;;;8.53;7.50;;;;;;;6.59;60.07;99991.34;5164469;27;20178;-57
2023/03/18 03:28:08;;;;;;;8.77;7.03;;;;;;;6.65;60.32;99981.38;5163118;27;20250;-55
2023/03/18 03:30:36;;;;;;;8.33;7.40;;;;;;;6.70;59.20;99992.66;5164556;27;20226;-56
2023/03/18 03:33:05;;;;;;;8.77;6.90;;;;;;;6.72;58.83;99993.56;5164535;27;20165;-57
2023/03/18 03:35:33;;;;;;;12.27;8.43;;;;;;;6.52;59.04;99957.03;5164489;27;20154;-57
2023/03/18 03:38:00;;;;;;;11.37;7.87;;;;;;;6.74;59.05;99986.84;5164345;27;20177;-58
2023/03/18 03:40:27;;;;;;;20.57;14.07;;;;;;;6.71;60.18;99984.16;5164443;27;20153;-56
2023/03/18 03:42:54;;;;;;;15.27;10.87;;;;;;;6.76;60.21;99990.31;5164697;27;20188;-57
2023/03/18 03:45:20;;;;;;;14.47;10.87;;;;;;;6.66;60.14;99980.56;5164344;27;20214;-57
2023/03/18 03:47:48;;;;;;;11.23;10.00;;;;;;;6.67;60.39;100005.28;5151733;27;20191;-57
2023/03/18 03:50:18;;;;;;;14.00;9.50;;;;;;;6.59;60.75;99976.03;5143527;28;20199;-57
2023/03/18 03:52:44;;;;;;;14.13;10.70;;;;;;;6.66;61.89;100003.53;5143647;28;20204;-57
2023/03/18 03:55:14;;;;;;;14.07;10.77;;;;;;;6.68;61.04;99996.81;5143625;28;20165;-58
2023/03/18 03:57:41;;;;;;;11.97;10.47;;;;;;;6.63;61.34;99994.06;5143554;28;20161;-58
2023/03/18 04:00:12;;;;;;;13.23;10.80;;;;;;;6.62;61.87;99984.66;5143285;28;20158;-57
2023/03/18 04:02:39;;;;;;;14.30;10.43;;;;;;;6.67;62.62;100001.06;5143422;28;20158;-56
2023/03/18 04:05:07;;;;;;;15.13;10.93;;;;;;;6.62;61.94;100001.69;5143253;28;20207;-56
2023/03/18 04:07:36;;;;;;;11.90;9.57;;;;;;;6.69;61.75;99996.88;5146312;27;20180;-56
2023/03/18 04:10:03;;;;;;;14.67;11.37;;;;;;;6.67;61.87;99997.63;5163953;27;20190;-56
2023/03/18 04:12:30;;;;;;;14.75;12.88;;;;;;;6.71;62.50;99997.81;5163009;27;20445;-57
2023/03/18 04:14:58;;;;;;;14.23;11.37;;;;;;;6.75;61.81;100001.34;5163832;27;20219;-57
2023/03/18 04:17:24;;;;;;;13.83;10.50;;;;;;;6.74;60.57;99997.03;5163665;27;20183;-57
2023/03/18 04:19:51;;;;;;;13.83;10.70;;;;;;;6.77;60.42;99994.63;5157408;27;20165;-58
2023/03/18 04:22:18;;;;;;;16.00;11.03;;;;;;;6.77;61.16;100002.28;5161244;27;20179;-58
2023/03/18 04:24:46;;;;;;;12.20;10.63;;;;;;;6.75;60.74;99999.69;5162345;27;20249;-58
2023/03/18 04:27:13;;;;;;;13.30;10.37;;;;;;;6.72;60.66;100001.22;5147989;27;20188;-58
2023/03/18 04:29:40;;;;;;;13.07;10.60;;;;;;;6.71;60.70;100005.47;5146007;27;20182;-58
2023/03/18 04:32:07;;;;;;;12.63;10.47;;;;;;;6.69;61.54;100012.19;5157070;27;20172;-58
2023/03/18 04:34:34;;;;;;;12.57;9.33;;;;;;;6.68;60.56;100004.47;5147199;27;20189;-58
2023/03/18 04:37:01;;;;;;;12.33;9.67;;;;;;;6.62;61.01;100010.19;5148175;27;20239;-57
2023/03/18 04:39:28;;;;;;;14.63;10.13;;;;;;;6.61;61.07;100010.16;5163128;27;20177;-56
2023/03/18 04:41:57;;;;;;;12.53;9.87;;;;;;;6.43;61.69;99983.06;5163184;27;20168;-57
2023/03/18 04:44:24;;;;;;;10.70;9.57;;;;;;;6.60;61.49;100016.06;5163160;27;20181;-57
2023/03/18 04:46:52;;;;;;;12.10;10.37;;;;;;;6.54;61.01;100006.47;5162883;27;20190;-57
2023/03/18 04:49:19;;;;;;;11.17;9.97;;;;;;;6.53;62.58;100010.72;5163037;27;20150;-57
2023/03/18 04:51:46;;;;;;;14.77;10.30;;;;;;;6.53;61.45;100007.28;5150078;27;20202;-57
2023/03/18 04:54:13;;;;;;;13.20;10.70;;;;;;;6.61;61.95;100017.81;5142358;28;20222;-56
2023/03/18 04:56:40;;;;;;;11.93;10.10;;;;;;;6.54;61.50;100015.00;5142327;28;20156;-57
2023/03/18 04:59:08;;;;;;;12.20;10.40;;;;;;;6.52;61.68;100016.63;5142020;28;20185;-58
2023/03/18 05:01:35;;;;;;;14.37;10.70;;;;;;;6.53;61.74;100012.41;5142130;28;20229;-56
2023/03/18 05:04:02;;;;;;;13.40;9.83;;;;;;;6.48;61.42;100007.09;5141923;28;20228;-57
2023/03/18 05:06:32;;;;;;;14.90;11.20;;;;;;;6.56;61.55;100011.66;5141727;27;20203;-56
2023/03/18 05:09:00;;;;;;;13.30;10.17;;;;;;;6.54;61.65;100012.44;5142067;28;20153;-57
2023/03/18 05:11:27;;;;;;;16.50;11.53;;;;;;;6.55;62.10;100010.78;5141879;28;20160;-57
2023/03/18 05:13:54;;;;;;;13.57;10.60;;;;;;;6.58;62.03;100018.56;5141845;28;20152;-56
2023/03/18 05:16:23;;;;;;;13.00;10.43;;;;;;;6.60;61.23;100019.47;5141803;28;20157;-55
2023/03/18 05:18:50;;;;;;;13.90;10.63;;;;;;;6.51;62.16;100011.44;5141636;28;20164;-56
2023/03/18 05:21:17;;;;;;;14.03;11.23;;;;;;;6.52;61.85;100011.53;5140951;28;20162;-57
2023/03/18 05:23:45;;;;;;;13.03;9.97;;;;;;;6.34;61.78;99981.84;5141646;28;20154;-57
2023/03/18 05:26:11;;;;;;;13.60;11.35;;;;;;;6.59;61.31;100020.31;5140533;28;20422;-57
2023/03/18 05:28:39;;;;;;;12.13;9.73;;;;;;;6.51;60.59;100004.66;5141395;28;20249;-57
2023/03/18 05:31:06;;;;;;;14.23;10.83;;;;;;;6.65;61.62;100017.13;5141610;28;20174;-56
2023/03/18 05:33:34;;;;;;;13.97;10.87;;;;;;;6.59;61.25;100020.31;5141494;28;20158;-56
2023/03/18 05:36:01;;;;;;;12.67;10.17;;;;;;;6.66;61.15;100032.50;5141498;28;20163;-57
2023/03/18 05:38:28;;;;;;;13.77;10.40;;;;;;;6.70;60.96;100030.94;5141510;28;20204;-57
2023/03/18 05:40:55;;;;;;;13.43;11.03;;;;;;;6.66;61.14;100029.06;5141465;28;20177;-56
2023/03/18 05:43:23;;;;;;;15.73;12.03;;;;;;;6.75;61.59;100032.88;5141347;28;20216;-56
2023/03/18 05:45:50;;;;;;;14.53;11.50;;;;;;;6.88;60.71;100037.66;5141281;28;20222;-57
2023/03/18 05:48:17;;;;;;;15.07;11.30;;;;;;;6.90;60.29;100033.47;5141218;28;20166;-57
2023/03/18 05:50:45;;;;;;;14.73;12.82;;;;;;;6.90;59.87;100030.91;5140672;28;20401;-56
2023/03/18 05:53:15;;;;;;;11.30;9.80;;;;;;;7.01;60.03;100028.75;5141223;28;20157;-57
2023/03/18 05:55:42;;;;;;;12.37;10.30;;;;;;;7.01;59.35;100028.75;5141155;28;20161;-56
2023/03/18 05:58:09;;;;;;;14.73;11.93;;;;;;;7.11;59.65;100041.94;5140042;28;20418;-57
2023/03/18 06:00:37;;;;;;;12.73;10.40;;;;;;;7.09;59.00;100012.03;5140495;28;20161;-57
2023/03/18 06:03:04;;;;;;;10.97;9.53;;;;;;;7.25;58.07;100034.81;5140662;28;20161;-57
2023/03/18 06:05:31;;;;;;;13.90;9.67;;;;;;;7.27;58.22;100040.88;5140509;28;20181;-57
2023/03/18 06:07:59;;;;;;;12.83;8.67;;;;;;;7.28;57.23;100041.75;5159346;27;20169;-57
2023/03/18 06:10:27;;;;;;;9.80;8.67;;;;;;;7.16;57.95;100039.59;5149723;27;20185;-57
2023/03/18 06:12:55;;;;;;;10.27;9.17;;;;;;;7.11;59.15;100036.00;5140652;28;20185;-57
2023/03/18 06:15:23;;;;;;;13.67;10.03;;;;;;;7.10;59.25;100036.78;5143607;27;20196;-57
2023/03/18 06:17:50;;;;;;;12.47;10.13;;;;;;;7.13;59.54;100039.47;5161051;27;20218;-57
2023/03/18 06:20:18;;;;;;;10.63;9.10;;;;;;;7.17;60.14;100031.09;5160911;27;20159;-57
2023/03/18 06:22:48;;;;;;;15.40;11.95;;;;;;;7.21;59.56;100043.19;5159705;27;20432;-57
2023/03/18 06:25:18;;;;;;;15.37;9.97;;;;;;;7.30;58.77;100033.31;5159873;27;20199;-57
2023/03/18 06:27:45;;;;;;;17.03;9.73;;;;;;;7.30;58.16;100035.88;5153433;27;20230;-57
2023/03/18 06:30:13;;;;;;;11.90;8.87;;;;;;;7.25;57.94;100034.81;5158923;27;20204;-57
2023/03/18 06:32:40;;;;;;;15.87;8.90;;;;;;;7.05;58.56;100021.31;5148349;28;20168;-57
2023/03/18 06:35:08;;;;;;;10.23;8.80;;;;;;;7.19;58.39;100039.72;5147920;27;20218;-57
2023/03/18 06:37:34;;;;;;;11.73;9.30;;;;;;;7.12;58.61;100033.50;5160710;28;20165;-59
2023/03/18 06:40:02;;;;;;;11.90;9.10;;;;;;;7.08;58.75;100025.66;5160335;28;20152;-57
2023/03/18 06:42:30;;;;;;;15.65;11.10;;;;;;;7.31;58.33;100024.81;5159590;27;20405;-56
2023/03/18 06:44:57;;;;;;;12.43;9.90;;;;;;;7.42;57.26;100038.00;5160656;27;20172;-56
2023/03/18 06:47:24;;;;;;;12.77;10.33;;;;;;;7.45;57.20;100026.22;5159974;28;20421;-56
2023/03/18 06:49:51;;;;;;;12.20;9.80;;;;;;;7.62;56.35;100012.38;5139942;28;20390;-57
2023/03/18 06:52:18;;;;;;;12.37;10.10;;;;;;;7.70;55.87;100026.28;5139866;28;20172;-56
2023/03/18 06:54:46;;;;;;;12.93;10.10;;;;;;;7.77;55.79;100022.28;5139838;28;20156;-57
2023/03/18 06:57:13;;;;;;;14.40;9.60;;;;;;;7.88;55.31;100017.53;5156598;28;20171;-56
2023/03/18 06:59:41;;;;;;;12.30;9.47;;;;;;;7.83;55.00;100017.34;5149241;27;20190;-56
2023/03/18 07:02:11;;;;;;;11.47;9.40;;;;;;;7.94;54.94;100010.09;5156457;28;20169;-57
2023/03/18 07:04:38;;;;;;;11.07;9.43;;;;;;;8.00;54.76;100020.50;5160089;27;20236;-57
2023/03/18 07:07:05;;;;;;;17.63;9.80;;;;;;;8.00;54.45;100018.81;5155259;28;20199;-56
2023/03/18 07:09:32;;;;;;;12.83;9.70;;;;;;;8.09;54.11;100020.84;5160509;27;20169;-55
2023/03/18 07:12:00;;;;;;;10.50;9.40;;;;;;;8.25;53.85;100015.41;5160518;27;20186;-57
2023/03/18 07:14:28;;;;;;;15.50;9.53;;;;;;;8.51;53.26;100024.00;5160189;27;20169;-56
2023/03/18 07:16:56;;;;;;;11.70;9.70;;;;;;;8.58;53.33;100019.13;5160461;27;20164;-56
2023/03/18 07:19:23;;;;;;;11.67;9.00;;;;;;;8.62;52.70;100000.47;5160887;27;20179;-57
2023/03/18 07:21:50;;;;;;;9.83;8.63;;;;;;;8.78;52.14;100017.19;5160832;27;20164;-55
2023/03/18 07:24:19;;;;;;;12.33;9.73;;;;;;;8.72;52.19;100012.75;5160855;27;20169;-56
2023/03/18 07:26:49;;;;;;;12.17;9.57;;;;;;;8.83;51.84;100015.66;5160816;27;20341;-56
2023/03/18 07:29:16;;;;;;;15.73;10.23;;;;;;;9.00;51.66;100013.59;5160512;27;20182;-55
2023/03/18 07:31:43;;;;;;;15.73;10.07;;;;;;;9.08;50.60;100002.75;5152174;27;20226;-56
2023/03/18 07:34:12;;;;;;;9.87;8.87;;;;;;;9.13;50.41;99988.38;5144204;28;20177;-57
2023/03/18 07:36:39;;;;;;;11.23;9.43;;;;;;;8.95;50.17;99944.28;5140375;28;20162;-56
2023/03/18 07:39:08;;;;;;;14.13;10.40;;;;;;;9.04;51.03;100008.59;5140197;28;20175;-57
2023/03/18 07:41:36;;;;;;;12.27;9.70;;;;;;;9.22;50.56;100006.63;5152908;27;20156;-57
2023/03/18 07:44:03;;;;;;;15.77;9.63;;;;;;;9.26;49.71;100003.31;5162510;27;20169;-56
2023/03/18 07:46:30;;;;;;;11.37;9.63;;;;;;;8.75;50.03;99909.50;5164552;27;20185;-57
2023/03/18 07:48:56;;;;;;;12.00;10.10;;;;;;;9.30;50.17;100005.16;5163964;27;20184;-56
2023/03/18 07:51:25;;;;;;;11.97;9.67;;;;;;;9.48;49.89;100003.09;5163672;27;20154;-56
2023/03/18 07:53:52;;;;;;;11.80;9.97;;;;;;;9.47;50.07;100010.75;5163084;27;20154;-57
2023/03/18 07:56:19;;;;;;;15.60;11.48;;;;;;;9.55;49.99;100008.41;5151144;27;20405;-56
2023/03/18 07:58:46;;;;;;;14.40;11.23;;;;;;;9.73;49.61;100012.34;5156226;27;20232;-57
2023/03/18 08:01:14;;;;;;;11.73;9.67;;;;;;;9.77;49.27;100016.75;5162969;27;20234;-57
2023/03/18 08:03:43;;;;;;;13.23;11.05;;;;;;;9.85;49.44;100022.09;5159052;27;20447;-58
2023/03/18 08:06:11;;;;;;;13.37;10.87;;;;;;;9.88;49.00;100017.91;5158355;27;20214;-56
2023/03/18 08:08:40;;;;;;;12.33;10.27;;;;;;;9.84;49.56;100022.91;5161941;27;20192;-55
2023/03/18 08:11:08;;;;;;;17.00;11.73;;;;;;;9.80;49.45;100024.53;5145772;27;20166;-56
2023/03/18 08:13:35;;;;;;;16.63;11.93;;;;;;;9.70;49.94;100022.53;5149173;27;20169;-56
2023/03/18 08:16:02;;;;;;;16.83;11.57;;;;;;;9.61;50.17;100029.13;5160532;27;20180;-56
2023/03/18 08:18:28;;;;;;;14.33;11.23;;;;;;;9.61;50.06;100031.69;5155178;27;20162;-55
2023/03/18 08:20:55;;;;;;;15.70;12.03;;;;;;;9.55;49.86;100028.94;5158968;27;20165;-56
2023/03/18 08:23:22;;;;;;;13.27;10.40;;;;;;;9.45;50.19;100035.47;5161164;27;20168;-56
2023/03/18 08:25:51;;;;;;;16.77;12.10;;;;;;;9.43;50.47;100035.44;5162955;27;20157;-55
2023/03/18 08:28:18;;;;;;;20.20;11.40;;;;;;;9.43;50.63;100029.44;5162813;27;20190;-56
2023/03/18 08:30:46;;;;;;;16.17;10.33;;;;;;;9.53;50.08;100025.47;5162950;27;20152;-57
2023/03/18 08:33:13;;;;;;;17.53;11.97;;;;;;;9.63;49.97;100030.00;5162916;27;20171;-56
2023/03/18 08:35:41;;;;;;;18.23;11.37;;;;;;;9.59;50.00;100007.66;5160874;27;20163;-56
2023/03/18 08:38:09;;;;;;;13.23;10.83;;;;;;;9.85;49.09;100032.34;5156788;27;20181;-56
2023/03/18 08:40:35;;;;;;;14.60;10.33;;;;;;;9.95;48.59;100029.19;5161681;27;20166;-56
2023/03/18 08:43:04;;;;;;;12.23;9.40;;;;;;;9.97;48.43;100028.41;5162593;27;20207;-55
2023/03/18 08:45:30;;;;;;;16.70;9.93;;;;;;;10.02;48.00;100032.00;5162727;27;20169;-56
2023/03/18 08:47:57;;;;;;;11.23;9.80;;;;;;;10.11;47.67;100028.78;5162639;27;20195;-56
2023/03/18 08:50:27;;;;;;;16.20;10.40;;;;;;;10.27;47.36;100030.09;5162390;27;20165;-56
2023/03/18 08:52:56;;;;;;;11.53;9.40;;;;;;;10.29;47.29;100021.59;5162380;27;20154;-57
2023/03/18 08:55:24;;;;;;;14.77;9.80;;;;;;;10.35;47.21;100042.31;5154576;27;20207;-56
2023/03/18 08:57:51;;;;;;;13.60;10.47;;;;;;;10.28;47.38;100034.41;5160839;27;20184;-56
2023/03/18 09:00:21;;;;;;;11.53;9.70;;;;;;;10.03;47.71;100038.84;5160831;27;20176;-56
2023/03/18 09:02:48;;;;;;;11.77;9.33;;;;;;;10.05;47.39;100047.47;5161408;27;20230;-55
2023/03/18 09:05:15;;;;;;;14.40;10.03;;;;;;;9.98;47.83;100045.56;5161745;27;20173;-56
2023/03/18 09:07:42;;;;;;;14.50;9.20;;;;;;;9.94;48.16;100043.72;5161496;27;20190;-55
2023/03/18 09:10:11;;;;;;;13.17;9.20;;;;;;;9.99;46.71;100052.44;5161717;27;20184;-56
2023/03/18 09:12:38;;;;;;;12.80;10.18;;;;;;;10.01;47.26;100045.66;5161426;27;20401;-56
2023/03/18 09:15:08;;;;;;;12.37;10.70;;;;;;;9.92;48.14;100044.50;5161609;27;20165;-56
2023/03/18 09:17:39;;;;;;;12.13;10.27;;;;;;;9.96;47.87;100054.94;5161209;27;20158;-57
2023/03/18 09:20:07;;;;;;;11.93;10.27;;;;;;;10.03;47.49;100050.81;5161522;27;20154;-56
2023/03/18 09:22:34;;;;;;;13.43;11.70;;;;;;;9.92;48.02;100055.66;5161258;27;20156;-56
2023/03/18 09:25:00;;;;;;;16.63;11.90;;;;;;;9.93;48.00;100056.53;5146214;27;20181;-56
2023/03/18 09:27:27;;;;;;;16.30;12.87;;;;;;;10.05;47.83;100062.03;5147683;27;20198;-55
2023/03/18 09:29:55;;;;;;;14.87;11.73;;;;;;;10.24;48.15;100059.16;5160351;27;20166;-55
2023/03/18 09:32:22;;;;;;;18.27;12.00;;;;;;;10.38;46.82;100057.78;5160697;27;20166;-56
2023/03/18 09:34:50;;;;;;;14.37;11.43;;;;;;;10.56;47.00;100053.13;5160824;27;20207;-55
2023/03/18 09:37:17;;;;;;;15.07;11.93;;;;;;;10.74;46.10;100049.28;5158251;27;20154;-55
2023/03/18 09:39:46;;;;;;;18.47;12.80;;;;;;;10.83;45.73;100046.91;5160847;27;20158;-56
2023/03/18 09:42:28;;;;;;;11.03;9.67;;;;;;;10.94;44.89;100059.19;5160729;27;20158;-56
2023/03/18 09:44:58;;;;;;;13.70;11.30;;;;;;;10.99;44.71;100064.44;5161208;27;20181;-55
2023/03/18 09:47:51;;;;;;;14.53;11.27;;;;;;;10.90;44.83;100070.25;5159468;27;20241;-56
2023/03/18 09:50:29;;;;;;;17.97;11.83;;;;;;;10.79;44.70;100065.69;5159684;27;20221;-56
2023/03/18 09:53:10;;;;;;;16.20;13.23;;;;;;;10.81;44.76;100077.72;5159298;27;20158;-56
2023/03/18 09:55:45;;;;;;;16.43;12.43;;;;;;;10.76;45.23;100079.31;5158873;27;20149;-55
2023/03/18 09:58:21;;;;;;;16.83;13.00;;;;;;;10.71;45.64;100083.50;5158547;27;20181;-56
2023/03/18 10:00:48;;;;;;;14.37;11.83;;;;;;;10.70;45.30;100083.44;5158930;27;20196;-56
2023/03/18 10:03:23;;;;;;;14.57;11.37;;;;;;;10.55;44.81;100086.47;5150414;27;20226;-56
2023/03/18 10:05:56;;;;;;;18.37;11.23;;;;;;;10.68;44.98;100083.41;5157895;27;20177;-56
2023/03/18 10:08:33;;;;;;;15.20;12.13;;;;;;;10.85;45.47;100089.81;5160520;27;20196;-55
2023/03/18 10:11:03;;;;;;;17.47;12.20;;;;;;;10.94;44.86;100081.47;5160522;27;20153;-56
2023/03/18 10:13:36;;;;;;;12.10;9.50;;;;;;;10.91;44.80;100092.53;5160507;27;20218;-57
2023/03/18 10:16:08;;;;;;;13.07;10.20;;;;;;;11.00;44.72;100084.19;5160073;27;20188;-56
2023/03/18 10:18:38;;;;;;;17.13;12.70;;;;;;;11.10;45.22;100088.69;5160197;27;20168;-56
2023/03/18 10:21:19;;;;;;;16.27;12.13;;;;;;;11.04;45.35;100084.28;5159849;27;20154;-56
2023/03/18 10:23:55;;;;;;;13.10;11.20;;;;;;;10.71;45.86;100086.06;5159939;27;20154;-56
2023/03/18 10:26:29;;;;;;;14.07;11.20;;;;;;;10.94;46.10;100095.19;5160047;27;20158;-55
2023/03/18 10:29:08;;;;;;;11.47;10.27;;;;;;;10.94;45.75;100061.75;5159879;27;20200;-56
2023/03/18 10:31:58;;;;;;;21.33;11.80;;;;;;;11.23;45.49;100095.91;5160331;27;20153;-56
2023/03/18 10:34:33;;;;;;;14.97;11.97;;;;;;;11.42;44.81;100097.16;5160628;27;20154;-56
2023/03/18 10:37:06;;;;;;;15.40;12.17;;;;;;;11.49;44.37;100088.75;5160267;27;20176;-56
2023/03/18 10:39:35;;;;;;;14.90;9.83;;;;;;;11.69;43.93;100096.09;5146902;27;20167;-56
2023/03/18 10:42:18;;;;;;;11.57;9.57;;;;;;;11.54;43.06;100046.81;5157397;28;20200;-55
2023/03/18 10:44:46;;;;;;;10.77;9.10;;;;;;;11.88;41.71;100086.19;5157373;28;20185;-57
2023/03/18 10:47:17;;;;;;;9.23;8.00;;;;;;;11.56;41.22;100086.34;5154607;27;20194;-56
2023/03/18 10:49:50;;;;;;;12.00;8.67;;;;;;;11.39;41.64;100079.09;5139690;28;20174;-56
2023/03/18 10:52:25;;;;;;;17.23;10.50;;;;;;;11.59;41.17;100082.97;5138631;28;20166;-57
2023/03/18 10:54:52;;;;;;;14.97;9.10;;;;;;;11.97;40.51;100082.09;5138164;28;20162;-56
2023/03/18 10:57:21;;;;;;;13.37;8.33;;;;;;;11.99;39.79;100082.09;5139209;28;20162;-55
2023/03/18 10:59:50;;;;;;;10.30;7.33;;;;;;;11.79;38.84;100082.56;5138337;28;20165;-55
2023/03/18 11:02:21;;;;;;;8.90;6.37;;;;;;;11.92;39.52;100082.84;5137935;28;20188;-56
2023/03/18 11:04:53;;;;;;;8.57;6.20;;;;;;;12.09;39.42;100082.31;5139144;28;20220;-55
2023/03/18 11:07:24;;;;;;;8.80;7.20;;;;;;;12.24;38.58;100090.34;5139047;28;20186;-55
2023/03/18 11:09:52;;;;;;;16.50;9.00;;;;;;;12.34;39.14;100079.38;5137806;28;20166;-56
2023/03/18 11:12:24;;;;;;;11.70;8.40;;;;;;;12.32;39.39;100077.59;5138629;28;20189;-56
2023/03/18 11:14:52;;;;;;;10.40;7.30;;;;;;;12.17;40.22;100082.47;5138942;28;20159;-55
2023/03/18 11:17:22;;;;;;;8.90;7.53;;;;;;;12.06;40.69;100076.25;5138727;28;20162;-55
2023/03/18 11:20:00;;;;;;;8.33;6.77;;;;;;;12.02;40.56;100072.75;5142758;28;20232;-56
2023/03/18 11:22:28;;;;;;;12.93;9.33;;;;;;;12.13;40.62;100065.22;5142746;28;20169;-55
2023/03/18 11:25:06;;;;;;;8.93;7.73;;;;;;;12.12;40.55;100077.22;5142846;28;20154;-55
2023/03/18 11:27:38;;;;;;;8.33;7.43;;;;;;;12.34;40.33;100073.34;5142632;28;20208;-55
2023/03/18 11:30:14;;;;;;;13.40;7.20;;;;;;;12.33;40.72;100072.47;5142676;28;20214;-55